Time;durP1;ratioP1;P1;durP2;ratioP2;P2;SDS_P1;SDS_P2;PMS_P1;PMS_P2;Temp;Humidity;BMP_temperature;BMP_pressure;BME280_temperature;BME280_humidity;BME280_pressure;Samples;Min_cycle;Max_cycle;Signal;HPM_P1;HPM_P2
2021/05/05 00:00:23;;;;;;;16.10;4.93;;;14.60;99.90;;;;;;5033707;28;20029;-75
2021/05/05 00:02:49;;;;;;;;;;;14.60;99.90;;;;;;5033761;28;20134;-75
2021/05/05 00:05:15;;;;;;;17.10;5.18;;;14.50;99.90;;;;;;5033244;28;20360;-75
2021/05/05 00:07:42;;;;;;;18.88;5.50;;;14.50;99.90;;;;;;5033266;28;20044;-75
2021/05/05 00:10:09;;;;;;;12.82;4.22;;;14.50;99.90;;;;;;5032630;28;20038;-75
2021/05/05 00:12:36;;;;;;;15.23;5.20;;;14.50;99.90;;;;;;5033252;28;20049;-75
2021/05/05 00:15:05;;;;;;;15.00;4.93;;;14.50;99.90;;;;;;5033360;28;20045;-75
2021/05/05 00:17:31;;;;;;;15.27;4.68;;;14.50;99.90;;;;;;5032864;28;20108;-74
2021/05/05 00:19:57;;;;;;;20.48;5.32;;;14.50;99.90;;;;;;5033125;28;20545;-75
2021/05/05 00:22:22;;;;;;;22.65;5.07;;;14.50;99.90;;;;;;5032744;28;20025;-75
2021/05/05 00:24:48;;;;;;;19.17;5.30;;;14.40;99.90;;;;;;5032425;28;20064;-76
2021/05/05 00:27:14;;;;;;;38.90;5.10;;;14.40;99.90;;;;;;5032555;28;20367;-76
2021/05/05 00:29:40;;;;;;;13.85;5.05;;;14.40;99.90;;;;;;5032921;28;20096;-75
2021/05/05 00:32:06;;;;;;;23.60;6.22;;;14.40;99.90;;;;;;5032917;28;20477;-75
2021/05/05 00:34:31;;;;;;;18.63;5.70;;;14.40;99.90;;;;;;5014841;28;20064;-76
2021/05/05 00:36:57;;;;;;;15.00;4.47;;;14.40;99.90;;;;;;5032542;28;20068;-76
2021/05/05 00:39:23;;;;;;;18.23;4.85;;;14.40;99.90;;;;;;5032533;28;20398;-75
2021/05/05 00:41:49;;;;;;;26.35;5.43;;;14.30;99.90;;;;;;5032195;28;20034;-75
2021/05/05 00:44:17;;;;;;;15.18;4.38;;;14.30;99.90;;;;;;5032248;28;20032;-75
2021/05/05 00:46:42;;;;;;;14.55;5.53;;;14.30;99.90;;;;;;5032457;28;20033;-74
2021/05/05 00:49:08;;;;;;;12.48;4.70;;;14.30;99.90;;;;;;5032124;28;20034;-75
2021/05/05 00:51:34;;;;;;;21.05;5.35;;;14.30;99.90;;;;;;5032076;28;20045;-75
2021/05/05 00:54:00;;;;;;;18.38;5.15;;;14.40;99.90;;;;;;5032596;28;20140;-76
2021/05/05 00:56:26;;;;;;;12.30;4.57;;;14.40;99.90;;;;;;5032287;28;20060;-75
2021/05/05 00:58:51;;;;;;;14.50;4.78;;;14.50;99.90;;;;;;5032358;28;20036;-76
2021/05/05 01:01:17;;;;;;;16.40;5.55;;;14.50;99.90;;;;;;5014362;28;20393;-75
2021/05/05 01:03:43;;;;;;;14.90;5.18;;;14.50;99.90;;;;;;5032199;28;20033;-75
2021/05/05 01:06:09;;;;;;;18.85;4.82;;;14.60;99.90;;;;;;5031911;28;20553;-75
2021/05/05 01:08:35;;;;;;;14.00;4.57;;;14.60;99.90;;;;;;5031759;28;20402;-75
2021/05/05 01:11:02;;;;;;;13.05;3.95;;;14.60;99.90;;;;;;5013908;28;20052;-75
2021/05/05 01:13:28;;;;;;;13.90;4.88;;;14.60;99.90;;;;;;5032091;28;20033;-75
2021/05/05 01:15:55;;;;;;;15.95;5.65;;;14.70;99.90;;;;;;5032119;28;20053;-75
2021/05/05 01:18:21;;;;;;;24.17;4.68;;;14.70;99.90;;;;;;5031395;28;20084;-75
2021/05/05 01:20:47;;;;;;;17.17;4.97;;;14.70;99.90;;;;;;5031217;28;20022;-75
2021/05/05 01:23:12;;;;;;;20.45;3.70;;;14.60;99.90;;;;;;5032160;28;20032;-75
2021/05/05 01:25:38;;;;;;;14.98;4.80;;;14.60;99.90;;;;;;5031914;28;20120;-76
2021/05/05 01:28:04;;;;;;;11.77;4.00;;;14.70;99.90;;;;;;5032173;28;20500;-75
2021/05/05 01:30:30;;;;;;;19.50;5.95;;;14.60;99.90;;;;;;5030507;28;20107;-75
2021/05/05 01:32:57;;;;;;;10.07;4.45;;;14.60;99.90;;;;;;5030017;28;20424;-75
2021/05/05 01:35:24;;;;;;;15.32;5.25;;;14.60;99.90;;;;;;5030061;28;20029;-75
2021/05/05 01:37:51;;;;;;;18.25;5.15;;;14.60;99.90;;;;;;5031257;28;20565;-75
2021/05/05 01:40:38;;;;;;;12.85;4.93;;;14.50;99.90;;;;;;5031390;28;20040;-76
2021/05/05 01:43:05;;;;;;;11.68;4.28;;;14.50;99.90;;;;;;5031551;28;20044;-75
2021/05/05 01:45:31;;;;;;;17.52;5.40;;;14.50;99.90;;;;;;5031631;28;20072;-75
2021/05/05 01:48:02;;;;;;;11.15;4.22;;;14.50;99.90;;;;;;5031266;28;20049;-75
2021/05/05 01:50:28;;;;;;;13.00;4.63;;;14.50;99.90;;;;;;5031286;28;20482;-76
2021/05/05 01:52:55;;;;;;;14.30;4.60;;;14.40;99.90;;;;;;5031758;28;20037;-75
2021/05/05 01:55:21;;;;;;;15.35;4.45;;;14.40;99.90;;;;;;5011903;28;20045;-75
2021/05/05 01:57:46;;;;;;;18.13;5.53;;;14.40;99.90;;;;;;5031400;28;20389;-75
2021/05/05 02:00:19;;;;;;;17.65;4.78;;;14.40;99.90;;;;;;5031173;28;20055;-76
2021/05/05 02:02:45;;;;;;;9.90;4.30;;;14.40;99.90;;;;;;5031347;28;20099;-75
2021/05/05 02:05:11;;;;;;;20.95;4.63;;;14.40;99.90;;;;;;5031771;28;20077;-75
2021/05/05 02:07:37;;;;;;;14.15;5.07;;;14.30;99.90;;;;;;5031359;28;20363;-75
2021/05/05 02:10:09;;;;;;;10.20;3.92;;;14.30;99.90;;;;;;5031514;28;20072;-76
2021/05/05 02:12:35;;;;;;;13.55;4.50;;;14.30;99.90;;;;;;5031149;28;20107;-75
2021/05/05 02:15:02;;;;;;;13.32;4.57;;;14.20;99.90;;;;;;5031431;28;20477;-75
2021/05/05 02:17:28;;;;;;;13.32;5.10;;;14.20;99.90;;;;;;5031458;28;20682;-75
2021/05/05 02:19:54;;;;;;;15.98;4.35;;;14.30;99.90;;;;;;5031172;28;20108;-75
2021/05/05 02:22:19;;;;;;;8.98;4.32;;;14.20;99.90;;;;;;5031176;28;20105;-74
2021/05/05 02:24:45;;;;;;;13.55;4.50;;;14.30;99.90;;;;;;5033525;28;20108;-75
2021/05/05 02:27:11;;;;;;;21.50;4.85;;;14.20;99.90;;;;;;5035272;28;20108;-75
2021/05/05 02:29:37;;;;;;;21.15;5.38;;;14.20;99.90;;;;;;5034681;28;20474;-76
2021/05/05 02:32:07;;;;;;;21.73;5.35;;;14.20;99.90;;;;;;5035418;28;20036;-75
2021/05/05 02:34:34;;;;;;;14.80;4.88;;;14.20;99.90;;;;;;5035106;28;20044;-75
2021/05/05 02:37:00;;;;;;;13.63;4.97;;;14.20;99.90;;;;;;5033603;28;20029;-75
2021/05/05 02:39:25;;;;;;;17.40;4.75;;;14.20;99.90;;;;;;5034439;28;20087;-75
2021/05/05 02:41:51;;;;;;;19.60;5.07;;;14.10;99.90;;;;;;5034572;28;20037;-75
2021/05/05 02:44:17;;;;;;;10.70;3.95;;;14.10;99.90;;;;;;5034705;28;20040;-75
2021/05/05 02:46:44;;;;;;;18.77;5.05;;;14.10;99.90;;;;;;5033541;28;20084;-75
2021/05/05 02:49:10;;;;;;;15.10;4.22;;;14.00;99.90;;;;;;5033100;28;20025;-75
2021/05/05 02:51:36;;;;;;;15.73;4.57;;;14.00;99.90;;;;;;5032805;28;20440;-75
2021/05/05 02:54:02;;;;;;;13.60;5.38;;;14.00;99.90;;;;;;5032384;28;20029;-75
2021/05/05 02:56:28;;;;;;;14.45;4.57;;;14.00;99.90;;;;;;5031213;28;20379;-75
2021/05/05 02:58:54;;;;;;;13.18;4.80;;;13.90;99.90;;;;;;5032310;28;20076;-75
2021/05/05 03:01:19;;;;;;;13.43;4.05;;;14.00;99.90;;;;;;5033088;28;20382;-76
2021/05/05 03:03:45;;;;;;;11.27;4.10;;;13.90;99.90;;;;;;5034615;28;20040;-75
2021/05/05 03:06:12;;;;;;;11.27;3.65;;;14.00;99.90;;;;;;5034731;28;20108;-75
2021/05/05 03:08:37;;;;;;;12.07;4.72;;;14.00;99.90;;;;;;5034480;28;20037;-75
2021/05/05 03:11:03;;;;;;;14.95;3.85;;;14.00;99.90;;;;;;5034233;28;20034;-75
2021/05/05 03:13:29;;;;;;;17.65;4.45;;;13.90;99.90;;;;;;5034167;28;20020;-75
2021/05/05 03:15:56;;;;;;;14.02;4.47;;;13.90;99.90;;;;;;5032613;28;20378;-75
2021/05/05 03:18:22;;;;;;;19.17;5.13;;;13.90;99.90;;;;;;5034504;28;20040;-75
2021/05/05 03:20:47;;;;;;;11.93;4.30;;;13.90;99.90;;;;;;5034206;28;20029;-75
2021/05/05 03:23:13;;;;;;;14.48;4.43;;;13.90;99.90;;;;;;5034132;28;20061;-75
2021/05/05 03:25:40;;;;;;;20.75;4.28;;;13.90;99.90;;;;;;5034125;28;20060;-75
2021/05/05 03:28:06;;;;;;;14.35;5.10;;;13.90;99.90;;;;;;5033819;28;20025;-75
2021/05/05 03:30:32;;;;;;;8.40;3.70;;;13.80;99.90;;;;;;5033649;28;20049;-76
2021/05/05 03:32:57;;;;;;;12.65;3.80;;;13.80;99.90;;;;;;5033919;28;20359;-75
2021/05/05 03:35:23;;;;;;;11.32;3.90;;;13.80;99.90;;;;;;5033489;28;20037;-75
2021/05/05 03:37:49;;;;;;;14.18;4.05;;;13.80;99.90;;;;;;5033673;28;20455;-75
2021/05/05 03:40:16;;;;;;;9.25;4.25;;;13.90;99.90;;;;;;5033772;28;20036;-75
2021/05/05 03:42:42;;;;;;;11.07;4.20;;;13.80;99.90;;;;;;5033784;28;20022;-75
2021/05/05 03:45:08;;;;;;;16.20;4.57;;;13.90;99.90;;;;;;5033898;28;20037;-76
2021/05/05 03:47:34;;;;;;;9.10;4.35;;;13.80;99.90;;;;;;5016268;28;20052;-75
2021/05/05 03:50:00;;;;;;;8.50;3.70;;;13.80;99.90;;;;;;5033620;28;20042;-75
2021/05/05 03:52:26;;;;;;;14.50;4.40;;;13.90;99.90;;;;;;5033552;28;20041;-75
2021/05/05 03:54:52;;;;;;;17.30;4.60;;;13.90;99.90;;;;;;5033655;28;20041;-75
2021/05/05 03:57:18;;;;;;;13.68;5.00;;;13.90;99.90;;;;;;5033797;28;20378;-75
2021/05/05 03:59:44;;;;;;;14.43;4.13;;;13.90;99.90;;;;;;5033355;28;20036;-75
2021/05/05 04:02:10;;;;;;;16.17;4.80;;;13.90;99.90;;;;;;5033256;28;20104;-75
2021/05/05 04:04:36;;;;;;;12.02;4.40;;;13.90;99.90;;;;;;5033550;28;20104;-75
2021/05/05 04:07:02;;;;;;;13.05;4.47;;;13.80;99.90;;;;;;5033263;28;20029;-75
2021/05/05 04:09:27;;;;;;;14.73;4.75;;;13.90;99.90;;;;;;5032899;28;20034;-75
2021/05/05 04:11:53;;;;;;;15.50;4.28;;;13.90;99.90;;;;;;5033341;28;20030;-75
2021/05/05 04:14:19;;;;;;;13.85;4.20;;;13.90;99.90;;;;;;5032941;28;20098;-75
2021/05/05 04:16:45;;;;;;;11.30;4.18;;;13.90;99.90;;;;;;5033722;28;20039;-75
2021/05/05 04:19:11;;;;;;;17.58;4.40;;;13.90;99.90;;;;;;5033168;28;20500;-75
2021/05/05 04:21:36;;;;;;;13.07;3.75;;;14.00;99.90;;;;;;5032661;28;20061;-75
2021/05/05 04:24:02;;;;;;;14.13;4.47;;;14.00;99.90;;;;;;5032598;28;20044;-75
2021/05/05 04:26:28;;;;;;;14.57;4.28;;;14.10;99.90;;;;;;5032601;28;20437;-76
2021/05/05 04:28:54;;;;;;;11.30;4.10;;;14.10;99.90;;;;;;5033084;28;20025;-74
2021/05/05 04:31:20;;;;;;;8.52;3.80;;;14.10;99.90;;;;;;5032775;28;20513;-75
2021/05/05 04:33:46;;;;;;;12.48;4.20;;;14.20;99.90;;;;;;5032841;28;20025;-75
2021/05/05 04:36:12;;;;;;;14.25;4.05;;;14.20;99.90;;;;;;5032279;28;20037;-76
2021/05/05 04:38:39;;;;;;;16.60;4.03;;;14.20;99.90;;;;;;5032305;28;20033;-76
2021/05/05 04:41:04;;;;;;;16.13;4.03;;;14.40;99.90;;;;;;5031191;28;20021;-75
2021/05/05 04:43:30;;;;;;;12.07;4.10;;;14.50;99.90;;;;;;5032431;28;20051;-75
2021/05/05 04:45:56;;;;;;;10.85;3.80;;;14.70;99.90;;;;;;5032197;28;20064;-75
2021/05/05 04:48:21;;;;;;;15.88;4.35;;;15.10;99.90;;;;;;5032199;28;20129;-76
2021/05/05 04:50:47;;;;;;;12.25;4.00;;;15.60;99.90;;;;;;5032111;28;20458;-75
2021/05/05 04:53:13;;;;;;;6.68;3.17;;;16.10;99.90;;;;;;5031901;28;20032;-78
2021/05/05 04:55:39;;;;;;;10.25;3.28;;;16.50;99.90;;;;;;5031816;28;20121;-77
2021/05/05 04:58:10;;;;;;;12.32;3.83;;;17.00;99.90;;;;;;5032108;28;20521;-76
2021/05/05 05:00:36;;;;;;;11.15;3.20;;;17.40;99.90;;;;;;5018115;28;20061;-76
2021/05/05 05:03:02;;;;;;;12.05;3.85;;;18.00;99.90;;;;;;5030622;28;20509;-74
2021/05/05 05:05:28;;;;;;;17.30;3.40;;;18.20;99.90;;;;;;5031653;28;20104;-76
2021/05/05 05:07:54;;;;;;;7.05;2.70;;;18.70;99.90;;;;;;5032203;28;20188;-77
2021/05/05 05:10:20;;;;;;;6.53;2.75;;;18.80;99.90;;;;;;5032026;28;20095;-77
2021/05/05 05:12:47;;;;;;;24.85;3.55;;;18.90;99.90;;;;;;5032235;28;20029;-77
2021/05/05 05:15:13;;;;;;;10.55;3.60;;;19.40;99.90;;;;;;5032221;28;20041;-77
2021/05/05 05:17:39;;;;;;;11.27;2.90;;;19.60;99.90;;;;;;5031453;28;20038;-77
2021/05/05 05:20:07;;;;;;;10.70;2.47;;;19.90;99.90;;;;;;5031337;28;20025;-77
2021/05/05 05:22:34;;;;;;;6.93;2.83;;;20.20;99.90;;;;;;5028893;28;20037;-77
2021/05/05 05:25:02;;;;;;;11.77;3.35;;;20.50;99.90;;;;;;5031170;28;20086;-77
2021/05/05 05:27:27;;;;;;;12.02;3.08;;;20.70;99.90;;;;;;5029378;28;20117;-76
2021/05/05 05:29:53;;;;;;;9.18;2.97;;;21.10;99.90;;;;;;5029786;28;20108;-76
2021/05/05 05:32:19;;;;;;;5.72;2.92;;;21.20;99.90;;;;;;5030723;28;20520;-76
2021/05/05 05:34:44;;;;;;;12.88;3.25;;;21.40;99.90;;;;;;5031954;28;20025;-76
2021/05/05 05:37:10;;;;;;;12.95;2.90;;;21.40;99.90;;;;;;5031931;28;20038;-76
2021/05/05 05:39:36;;;;;;;16.98;3.08;;;21.40;99.90;;;;;;5014231;28;20048;-76
2021/05/05 05:42:01;;;;;;;10.70;3.47;;;21.60;99.90;;;;;;5031517;28;20029;-76
2021/05/05 05:44:27;;;;;;;9.50;2.67;;;21.90;99.90;;;;;;5030700;28;20030;-76
2021/05/05 05:46:53;;;;;;;15.07;3.30;;;22.10;99.90;;;;;;5031184;28;20029;-76
2021/05/05 05:49:18;;;;;;;12.85;2.63;;;22.30;99.90;;;;;;5030656;28;20048;-75
2021/05/05 05:51:44;;;;;;;7.22;2.75;;;22.60;99.90;;;;;;5029822;28;20040;-77
2021/05/05 05:54:10;;;;;;;5.22;2.03;;;22.50;99.90;;;;;;5030871;28;20120;-77
2021/05/05 05:56:35;;;;;;;7.10;2.60;;;22.50;99.90;;;;;;5030157;28;20639;-78
2021/05/05 05:59:01;;;;;;;9.18;2.60;;;22.70;99.90;;;;;;5033562;28;20108;-76
2021/05/05 06:01:27;;;;;;;12.10;3.05;;;22.70;99.90;;;;;;5034034;28;20025;-76
2021/05/05 06:03:53;;;;;;;11.80;2.80;;;22.70;99.90;;;;;;5033744;28;20059;-76
2021/05/05 06:06:19;;;;;;;11.15;2.45;;;22.90;99.90;;;;;;5035236;28;20444;-76
2021/05/05 06:08:44;;;;;;;10.07;3.10;;;23.20;99.90;;;;;;5035047;28;20026;-76
2021/05/05 06:11:10;;;;;;;13.13;3.28;;;23.60;99.90;;;;;;5016565;28;20046;-76
2021/05/05 06:13:36;;;;;;;15.07;4.00;;;24.00;99.90;;;;;;5034464;28;20046;-76
2021/05/05 06:16:01;;;;;;;9.10;2.58;;;23.90;99.90;;;;;;5033689;28;20033;-76
2021/05/05 06:18:27;;;;;;;9.32;2.20;;;23.50;99.90;;;;;;5017189;28;20029;-76
2021/05/05 06:20:53;;;;;;;12.93;2.80;;;22.80;99.90;;;;;;5034436;28;20440;-75
2021/05/05 06:23:19;;;;;;;7.75;2.50;;;22.80;99.90;;;;;;5034903;28;20044;-76
2021/05/05 06:25:44;;;;;;;7.10;2.72;;;23.10;99.90;;;;;;5034661;28;20679;-75
2021/05/05 06:28:10;;;;;;;12.73;2.95;;;23.10;99.90;;;;;;5034580;28;20052;-76
2021/05/05 06:30:36;;;;;;;9.85;2.78;;;23.10;99.90;;;;;;5034532;28;20049;-76
2021/05/05 06:33:02;;;;;;;12.25;2.95;;;23.50;99.90;;;;;;5034412;28;20022;-76
2021/05/05 06:35:28;;;;;;;10.13;2.40;;;23.70;99.90;;;;;;5031988;28;20104;-76
2021/05/05 06:37:54;;;;;;;8.85;2.83;;;23.70;99.90;;;;;;5034439;28;20035;-76
2021/05/05 06:40:19;;;;;;;9.27;2.90;;;24.20;99.90;;;;;;5034521;28;20025;-75
2021/05/05 06:42:46;;;;;;;8.07;2.55;;;24.70;99.90;;;;;;5034543;28;20038;-76
2021/05/05 06:45:12;;;;;;;13.23;2.30;;;25.40;99.90;;;;;;5015798;28;20036;-76
2021/05/05 06:47:38;;;;;;;9.40;2.55;;;26.00;99.90;;;;;;5034172;28;20085;-76
2021/05/05 06:50:06;;;;;;;8.90;2.70;;;26.40;99.90;;;;;;5034417;28;20060;-75
2021/05/05 06:52:32;;;;;;;6.75;2.42;;;26.30;99.90;;;;;;5034174;28;20034;-75
2021/05/05 06:54:57;;;;;;;6.65;2.40;;;25.10;99.90;;;;;;5034002;28;20048;-75
2021/05/05 06:57:23;;;;;;;8.95;2.42;;;24.70;99.90;;;;;;5016095;28;20116;-75
2021/05/05 06:59:49;;;;;;;10.45;3.03;;;24.30;99.90;;;;;;5033704;28;20030;-75
2021/05/05 07:02:14;;;;;;;10.13;2.60;;;23.70;99.90;;;;;;5034093;28;20497;-76
2021/05/05 07:04:40;;;;;;;8.43;3.33;;;22.80;99.90;;;;;;5032548;28;20116;-75
2021/05/05 07:07:06;;;;;;;10.95;3.72;;;22.00;99.90;;;;;;5033987;28;20035;-76
2021/05/05 07:09:31;;;;;;;15.80;3.20;;;21.40;99.90;;;;;;5032716;28;20508;-75
2021/05/05 07:11:57;;;;;;;15.60;4.03;;;21.00;99.90;;;;;;5034297;28;20029;-75
2021/05/05 07:14:23;;;;;;;17.52;3.97;;;20.60;99.90;;;;;;5033398;28;20091;-75
2021/05/05 07:16:48;;;;;;;13.23;3.22;;;20.20;99.90;;;;;;5033135;28;20091;-75
2021/05/05 07:19:14;;;;;;;11.52;3.42;;;19.80;99.90;;;;;;5033971;28;20032;-75
2021/05/05 07:21:40;;;;;;;12.73;4.20;;;19.80;99.90;;;;;;5033850;28;20033;-76
2021/05/05 07:24:06;;;;;;;13.07;3.60;;;19.80;99.90;;;;;;5033251;28;20033;-75
2021/05/05 07:26:32;;;;;;;12.40;3.78;;;20.10;99.90;;;;;;5011585;28;20037;-76
2021/05/05 07:28:57;;;;;;;29.25;4.20;;;20.20;99.90;;;;;;5033794;28;20021;-76
2021/05/05 07:31:24;;;;;;;7.50;3.88;;;20.20;99.90;;;;;;5032985;28;20447;-76
2021/05/05 07:33:51;;;;;;;14.15;3.75;;;20.20;99.90;;;;;;5033018;28;20029;-75
2021/05/05 07:36:19;;;;;;;16.20;4.18;;;20.10;99.90;;;;;;5032150;28;20029;-77
2021/05/05 07:49:22;;;;;;;14.07;4.28;;;19.90;99.90;;;;;;5031905;28;20033;-77
2021/05/05 07:51:48;;;;;;;10.27;3.22;;;20.00;99.90;;;;;;5031641;28;20061;-77
2021/05/05 07:54:14;;;;;;;9.70;3.55;;;20.10;99.90;;;;;;5032493;28;20472;-76
2021/05/05 07:56:41;;;;;;;11.65;3.72;;;20.20;99.90;;;;;;5033047;28;20041;-78
2021/05/05 07:59:07;;;;;;;25.95;4.35;;;20.30;99.90;;;;;;5016457;28;20044;-78
2021/05/05 08:01:34;;;;;;;11.75;4.43;;;20.50;99.90;;;;;;5032776;28;20041;-76
2021/05/05 08:04:00;;;;;;;13.95;3.42;;;20.80;99.90;;;;;;5033219;28;20065;-78
2021/05/05 08:06:27;;;;;;;13.68;3.80;;;21.10;99.90;;;;;;5033337;28;20033;-78
2021/05/05 08:08:54;;;;;;;9.05;3.92;;;21.30;99.90;;;;;;5032861;28;20025;-77
2021/05/05 08:11:20;;;;;;;15.23;3.78;;;21.20;99.90;;;;;;5033251;28;20038;-78
2021/05/05 08:13:47;;;;;;;10.00;4.10;;;21.20;99.90;;;;;;5032429;28;20381;-76
2021/05/05 08:16:15;;;;;;;16.38;3.70;;;21.40;99.90;;;;;;5032310;28;20017;-76
2021/05/05 08:18:40;;;;;;;11.45;3.92;;;21.30;99.90;;;;;;5031584;28;20497;-76
2021/05/05 08:21:08;;;;;;;12.43;3.88;;;21.40;99.90;;;;;;5029941;28;20033;-76
2021/05/05 08:23:36;;;;;;;12.15;3.63;;;21.50;99.90;;;;;;5031902;28;20099;-76
2021/05/05 08:26:03;;;;;;;9.73;3.30;;;21.60;99.90;;;;;;5014525;28;20037;-77
2021/05/05 08:28:28;;;;;;;13.63;3.72;;;21.50;99.90;;;;;;5033187;28;20028;-76
2021/05/05 08:30:54;;;;;;;14.15;4.07;;;21.50;99.90;;;;;;5032900;28;20046;-77
2021/05/05 08:33:20;;;;;;;11.70;3.67;;;21.40;99.90;;;;;;5032434;28;20083;-77
2021/05/05 08:35:46;;;;;;;8.73;4.47;;;21.10;99.90;;;;;;5032871;28;20104;-77
2021/05/05 08:38:12;;;;;;;12.32;4.25;;;21.20;99.90;;;;;;5016026;28;20095;-77
2021/05/05 08:40:37;;;;;;;11.65;3.67;;;21.30;99.90;;;;;;5032188;28;20100;-77
2021/05/05 08:43:03;;;;;;;11.70;3.78;;;21.40;99.90;;;;;;5013612;28;20033;-76
2021/05/05 08:45:30;;;;;;;19.83;4.38;;;21.30;99.90;;;;;;5032666;28;20051;-76
2021/05/05 08:47:59;;;;;;;12.73;3.28;;;21.20;99.90;;;;;;5032362;28;20033;-77
2021/05/05 08:50:28;;;;;;;18.50;3.92;;;21.30;99.90;;;;;;5032811;28;20042;-79
2021/05/05 08:52:55;;;;;;;15.98;3.53;;;21.40;99.90;;;;;;5032576;28;20028;-77
2021/05/05 08:55:23;;;;;;;26.95;3.92;;;21.50;99.90;;;;;;5032389;28;20041;-74
2021/05/05 08:57:49;;;;;;;14.05;3.08;;;21.70;99.90;;;;;;5031853;28;20098;-76
2021/05/05 09:00:21;;;;;;;18.83;4.35;;;21.70;99.90;;;;;;5032416;28;20033;-75
2021/05/05 09:02:47;;;;;;;8.02;3.08;;;21.80;99.90;;;;;;5030090;28;20493;-75
2021/05/05 09:05:13;;;;;;;13.65;3.45;;;21.70;99.90;;;;;;5030694;28;20541;-75
2021/05/05 09:07:41;;;;;;;11.73;3.03;;;21.70;99.90;;;;;;5031104;28;20078;-75
2021/05/05 09:10:10;;;;;;;6.82;2.97;;;21.60;99.90;;;;;;5048880;22;20046;-73
2021/05/05 09:12:38;;;;;;;12.68;3.28;;;21.70;99.90;;;;;;5031835;28;20037;-74
2021/05/05 09:15:06;;;;;;;13.80;3.70;;;21.70;99.90;;;;;;5031071;28;20487;-73
2021/05/05 09:17:37;;;;;;;12.73;3.60;;;21.80;99.90;;;;;;5032233;28;20172;-77
2021/05/05 09:20:05;;;;;;;12.35;3.67;;;21.60;99.90;;;;;;5024055;28;20130;-73
2021/05/05 09:22:48;;;;;;;10.05;3.40;;;21.60;99.90;;;;;;5032041;28;20498;-74
2021/05/05 09:25:38;;;;;;;7.82;2.75;;;21.60;99.90;;;;;;5032199;28;20037;-75
2021/05/05 09:28:21;;;;;;;12.48;3.28;;;21.60;99.90;;;;;;5025207;28;20056;-76
2021/05/05 09:30:53;;;;;;;12.25;3.65;;;21.50;99.90;;;;;;5032394;28;20037;-78
2021/05/05 09:33:23;;;;;;;9.60;3.72;;;21.30;99.90;;;;;;5032430;28;20022;-78
2021/05/05 09:35:56;;;;;;;6.15;2.78;;;21.30;99.90;;;;;;5032423;28;20482;-76
2021/05/05 09:38:22;;;;;;;15.80;2.90;;;21.40;99.90;;;;;;5032523;28;20048;-74
2021/05/05 09:40:56;;;;;;;9.30;3.13;;;21.40;99.90;;;;;;5031270;28;20025;-76
2021/05/05 09:43:22;;;;;;;10.68;3.10;;;21.30;99.90;;;;;;5025294;28;20430;-74
2021/05/05 09:45:48;;;;;;;11.38;3.30;;;21.30;99.90;;;;;;5031791;28;20168;-81
2021/05/05 09:48:21;;;;;;;5.35;2.53;;;21.20;99.90;;;;;;5031884;28;20013;-81
2021/05/05 09:50:47;;;;;;;11.90;2.95;;;21.10;99.90;;;;;;5031978;28;20397;-75
2021/05/05 09:53:35;;;;;;;9.60;3.03;;;21.40;99.90;;;;;;5031922;28;20028;-75
2021/05/05 09:56:01;;;;;;;7.03;2.58;;;21.50;99.90;;;;;;5031586;28;20545;-75
2021/05/05 09:58:32;;;;;;;9.52;3.10;;;21.70;99.90;;;;;;5031950;28;20103;-78
2021/05/05 10:01:04;;;;;;;9.13;3.05;;;21.80;99.90;;;;;;5032395;28;20033;-79
2021/05/05 10:03:40;;;;;;;;;;;21.80;99.90;;;;;;5032650;28;20033;-74
2021/05/05 10:06:24;;;;;;;9.75;2.83;;;21.90;99.90;;;;;;5032315;28;20284;-76
2021/05/05 10:08:53;;;;;;;11.73;3.33;;;21.90;99.90;;;;;;5032570;28;20033;-79
2021/05/05 10:11:26;;;;;;;13.38;2.88;;;21.80;99.90;;;;;;5032022;28;20069;-73
2021/05/05 10:13:53;;;;;;;13.13;3.67;;;21.50;99.90;;;;;;5032466;28;20041;-74
2021/05/05 10:16:21;;;;;;;15.63;2.92;;;21.60;99.90;;;;;;5032264;28;20029;-75
2021/05/05 10:18:48;;;;;;;7.93;2.45;;;21.60;99.90;;;;;;5032165;28;20069;-78
2021/05/05 10:21:15;;;;;;;8.23;2.47;;;21.70;99.90;;;;;;5022009;28;20022;-76
2021/05/05 10:23:42;;;;;;;12.63;3.15;;;21.70;99.90;;;;;;5030919;28;20083;-76
2021/05/05 10:26:10;;;;;;;9.10;2.90;;;21.80;99.90;;;;;;5028088;28;20496;-76
2021/05/05 10:28:40;;;;;;;8.90;3.28;;;21.80;99.90;;;;;;5031780;28;20386;-79
2021/05/05 10:31:15;;;;;;;7.88;2.28;;;21.80;99.90;;;;;;5031524;28;20044;-79
2021/05/05 10:33:43;;;;;;;16.00;3.83;;;21.70;99.90;;;;;;5032122;28;20021;-78
2021/05/05 10:36:38;;;;;;;4.80;2.42;;;21.70;99.90;;;;;;5031871;28;20045;-75
2021/05/05 10:39:19;;;;;;;7.35;2.53;;;21.80;99.90;;;;;;5031527;28;20037;-75
2021/05/05 10:42:01;;;;;;;8.30;2.92;;;21.90;99.90;;;;;;5030793;28;20030;-78
2021/05/05 10:44:43;;;;;;;25.05;3.35;;;21.90;99.90;;;;;;5032070;28;20033;-80
2021/05/05 10:47:31;;;;;;;10.98;3.45;;;21.90;99.90;;;;;;5035330;28;20108;-79
2021/05/05 10:52:57;;;;;;;10.27;2.65;;;22.10;99.90;;;;;;5035238;28;20470;-82
2021/05/05 10:55:35;;;;;;;5.13;2.33;;;22.00;99.90;;;;;;5035290;28;20064;-82
2021/05/05 10:58:08;;;;;;;8.98;2.63;;;22.10;99.90;;;;;;5035934;28;20104;-82
2021/05/05 11:00:48;;;;;;;8.48;2.97;;;22.30;99.90;;;;;;5035032;28;20036;-81
2021/05/05 11:03:14;;;;;;;9.98;2.88;;;22.60;99.90;;;;;;5035489;28;20033;-81
2021/05/05 11:05:42;;;;;;;4.95;2.40;;;22.70;99.90;;;;;;5035352;28;20061;-82
2021/05/05 11:08:26;;;;;;;15.77;3.22;;;22.70;99.90;;;;;;5034530;28;20033;-82
2021/05/05 11:10:57;;;;;;;8.20;2.53;;;22.60;99.90;;;;;;5034328;28;20115;-81
2021/05/05 11:13:23;;;;;;;9.25;2.40;;;22.40;99.90;;;;;;5035282;28;20025;-80
2021/05/05 11:15:55;;;;;;;22.08;3.47;;;22.20;99.90;;;;;;5035380;28;20079;-81
2021/05/05 11:21:00;;;;;;;6.25;3.17;;;21.90;99.90;;;;;;5035362;28;20029;-82
2021/05/05 11:23:34;;;;;;;10.43;3.30;;;21.70;99.90;;;;;;5035319;28;20155;-81
2021/05/05 11:26:31;;;;;;;15.38;3.20;;;21.60;99.90;;;;;;5034960;28;20037;-80
2021/05/05 11:28:59;;;;;;;6.70;2.60;;;21.50;99.90;;;;;;5011499;28;20026;-82
2021/05/05 11:31:46;;;;;;;11.57;2.67;;;21.20;99.90;;;;;;5035057;28;20041;-82
2021/05/05 11:34:24;;;;;;;14.65;3.28;;;21.00;99.90;;;;;;5035255;28;20030;-82
2021/05/05 11:36:59;;;;;;;12.15;2.88;;;20.80;99.90;;;;;;5047043;28;20033;-82
2021/05/05 11:39:42;;;;;;;11.50;3.38;;;20.50;99.90;;;;;;5034853;28;20021;-81
2021/05/05 11:42:17;;;;;;;14.30;3.15;;;20.40;99.90;;;;;;5022656;28;20022;-82
2021/05/05 11:44:45;;;;;;;8.13;3.30;;;20.20;99.90;;;;;;5034354;28;20056;-81
2021/05/05 11:47:44;;;;;;;8.70;3.63;;;20.10;99.90;;;;;;5034391;28;20083;-80
2021/05/05 11:50:22;;;;;;;10.73;3.17;;;20.00;99.90;;;;;;5007534;28;20041;-81
2021/05/05 11:52:51;;;;;;;14.50;2.90;;;19.90;99.90;;;;;;5034432;28;20025;-82
2021/05/05 11:55:30;;;;;;;12.85;3.28;;;19.80;99.90;;;;;;5033906;28;20029;-80
2021/05/05 11:57:58;;;;;;;5.43;2.80;;;19.80;99.90;;;;;;5033840;28;20064;-81
2021/05/05 12:00:33;;;;;;;7.95;3.17;;;19.80;99.90;;;;;;5032969;28;20033;-80
2021/05/05 12:03:06;;;;;;;20.58;3.85;;;19.80;99.90;;;;;;5034044;28;20026;-81
2021/05/05 12:05:36;;;;;;;29.63;4.22;;;19.80;99.90;;;;;;5033880;28;20112;-81
2021/05/05 12:08:10;;;;;;;11.77;3.63;;;19.80;99.90;;;;;;5033807;28;20029;-74
2021/05/05 12:10:37;;;;;;;11.63;3.58;;;19.90;99.90;;;;;;5033866;28;20158;-76
2021/05/05 12:13:11;;;;;;;11.38;2.90;;;19.80;99.90;;;;;;5033990;28;20057;-81
2021/05/05 12:15:41;;;;;;;16.50;3.63;;;19.70;99.90;;;;;;5034373;28;20121;-82
2021/05/05 12:18:29;;;;;;;9.85;2.60;;;19.60;99.90;;;;;;5034300;28;20022;-81
2021/05/05 12:21:05;;;;;;;12.93;3.00;;;19.70;99.90;;;;;;5031984;28;20585;-81
2021/05/05 12:23:51;;;;;;;25.45;3.00;;;19.70;99.90;;;;;;5033524;28;20506;-86
2021/05/05 12:26:37;;;;;;;9.32;2.97;;;19.90;99.90;;;;;;5033422;28;20071;-87
2021/05/05 12:29:05;;;;;;;17.13;2.80;;;20.10;99.90;;;;;;5033933;28;20033;-73
2021/05/05 12:31:33;;;;;;;7.80;2.85;;;20.20;99.90;;;;;;5015626;28;20038;-88
2021/05/05 12:34:00;;;;;;;9.13;2.80;;;20.20;99.90;;;;;;5037800;28;20060;-87
2021/05/05 12:36:29;;;;;;;7.57;2.80;;;20.20;99.90;;;;;;5034085;28;20038;-88
2021/05/05 12:39:00;;;;;;;13.30;2.75;;;20.10;99.90;;;;;;5033170;28;20064;-87
2021/05/05 12:41:38;;;;;;;5.05;2.40;;;20.20;99.90;;;;;;5032120;28;20072;-83
2021/05/05 12:44:04;;;;;;;6.07;2.53;;;20.00;99.90;;;;;;5005182;28;20033;-87
2021/05/05 12:46:54;;;;;;;3.95;2.45;;;20.00;99.90;;;;;;5033100;28;20501;-81
2021/05/05 12:49:28;;;;;;;5.03;2.85;;;20.10;99.90;;;;;;5032276;28;20029;-87
2021/05/05 12:51:54;;;;;;;5.18;2.55;;;20.10;99.90;;;;;;5016827;28;20395;-81
2021/05/05 12:54:21;;;;;;;5.43;2.47;;;20.10;99.90;;;;;;5031500;28;20041;-78
2021/05/05 12:56:49;;;;;;;9.68;2.95;;;19.90;99.90;;;;;;5031969;28;20116;-77
2021/05/05 12:59:31;;;;;;;7.25;2.75;;;19.90;99.90;;;;;;5036721;28;20029;-78
2021/05/05 13:02:11;;;;;;;5.35;2.30;;;19.70;99.90;;;;;;5030720;28;20116;-82